Flight Track Log - Related Links

Times and Time Zones

All times are in EDT time to prevent confusion due to time zone crossing. See the UAL335 flight status page for this flight to view local times or setup timezone preferences in your user account.

Time Position Orientation Groundspeed Altitude Reporting Facility
EDT Latitude Longitude Course Direction KTS MPH feet Rate Location/Type
Sat 12:15:25 PM 39.8833 -104.6000 110° East 178 205 6,500  Level Denver TRACON
Sat 12:16:36 PM 39.8508 -104.5131 116° Southeast 226 260 8,000 1,669 Climbing Denver Center
Sat 12:17:38 PM 39.8192 -104.4222 114° Southeast 275 316 10,200 1,694 Climbing Denver Center
Sat 12:18:00 PM 39.6653 -104.0446 108° East  Level FlightAware Approximate
Sat 12:18:40 PM 39.7828 -104.3144 114° Southeast 325 374 11,500  Level Denver Center
Sat 12:19:00 PM 39.6154 -103.8910 116° Southeast  Level FlightAware Approximate
Sat 12:19:42 PM 39.7372 -104.1836 114° Southeast 367 422 13,700  Level Denver Center
Sat 12:20:00 PM 39.5696 -103.7352 110° East  Level FlightAware Approximate
Sat 12:20:44 PM 39.6933 -104.0583 114° Southeast 386 444 16,000  Level Denver Center
Sat 12:21:46 PM 39.6417 -103.9208 116° Southeast 397 457 18,400 2,129 Climbing Denver Center
Sat 12:22:48 PM 39.5911 -103.7928 117° Southeast 399 459 20,400 1,597 Climbing Denver Center
Sat 12:23:50 PM 39.5558 -103.6597 109° East 394 453 21,700 1,306 Climbing Denver Center
Sat 12:24:52 PM 39.5181 -103.5114 108° East 427 491 23,100 1,355 Climbing Denver Center
Sat 12:25:54 PM 39.4786 -103.3608 109° East 435 501 24,500 1,500 Climbing Denver Center
Sat 12:26:56 PM 39.4308 -103.1839 109° East 444 511 26,200 1,403 Climbing Denver Center
Sat 12:27:58 PM 39.3911 -103.0292 108° East 450 518 27,400 1,355 Climbing Denver Center
Sat 12:29:00 PM 39.3475 -102.8728 110° East 456 525 29,000 1,403 Climbing Denver Center
Sat 12:30:02 PM 39.3072 -102.7250 109° East 450 518 30,300 968 Climbing Denver Center
Sat 12:31:04 PM 39.2631 -102.5619 109° East 447 514 31,000 339 Climbing Denver Center
Sat 12:32:06 PM 39.2103 -102.4283 117° Southeast 442 509 31,000  Level Denver Center
Sat 12:33:08 PM 39.1169 -102.2986 133° Southeast 442 509 31,000 145 Level Denver Center
Sat 12:34:10 PM 39.0356 -102.1911 134° Southeast 438 504 31,300 484 Climbing Denver Center
Sat 12:35:12 PM 38.9403 -102.0628 134° Southeast 444 511 32,000 726 Climbing Denver Center
Sat 12:36:14 PM 38.8561 -101.9489 133° Southeast 455 524 32,800 919 Climbing Denver Center
Sat 12:37:16 PM 38.7561 -101.8186 135° Southeast 458 527 33,900 823 Climbing Denver Center
Sat 12:38:18 PM 38.6714 -101.7056 134° Southeast 461 531 34,500 532 Climbing Denver Center
Sat 12:39:20 PM 38.5706 -101.5717 134° Southeast 466 536 35,000 242 Climbing Denver Center
Sat 12:40:22 PM 38.4847 -101.4594 134° Southeast 462 532 35,000  Level Denver Center
Sat 12:41:24 PM 38.3836 -101.3278 134° Southeast 464 534 35,000  Level Denver Center
Sat 12:42:26 PM 38.2964 -101.2142 134° Southeast 468 539 35,000  Level Denver Center
Sat 12:43:28 PM 38.2089 -101.1000 134° Southeast 472 543 35,000  Level Denver Center
Sat 12:44:30 PM 38.1061 -100.9678 135° Southeast 470 541 35,000  Level Denver Center
Sat 12:45:32 PM 38.0183 -100.8544 134° Southeast 469 540 35,000  Level Denver Center
Sat 12:46:04 PM 37.9744 -100.7975 134° Southeast 467 537 35,000  Level Kansas City Center
Sat 12:47:07 PM 37.8714 -100.6650 135° Southeast 467 537 35,000  Level Kansas City Center
Sat 12:48:08 PM 37.7808 -100.5492 135° Southeast 468 539 35,000  Level Kansas City Center
Sat 12:49:09 PM 37.6789 -100.4214 135° Southeast 467 537 35,000  Level Kansas City Center
Sat 12:50:09 PM 37.5906 -100.3094 135° Southeast 468 539 35,000  Level Kansas City Center
Sat 12:51:13 PM 37.5025 -100.1986 135° Southeast 466 536 35,000  Level Kansas City Center
Sat 12:52:14 PM 37.3997 -100.0683 135° Southeast 467 537 35,000  Level Kansas City Center
Sat 12:53:14 PM 37.3111 -99.9575 135° Southeast 469 540 35,000  Level Kansas City Center
Sat 12:54:16 PM 37.2075 -99.8303 136° Southeast 467 537 35,000  Level Kansas City Center
Sat 12:55:19 PM 37.1189 -99.7211 135° Southeast 467 537 35,000  Level Kansas City Center
Sat 12:56:21 PM 37.0219 -99.6006 135° Southeast 468 539 35,000  Level Kansas City Center
Sat 12:57:21 PM 36.9286 -99.4836 135° Southeast 472 543 35,000  Level Kansas City Center
Sat 12:58:23 PM 36.8342 -99.3672 135° Southeast 474 545 35,000  Level Kansas City Center
Sat 12:59:27 PM 36.7397 -99.2533 136° Southeast 472 543 35,000  Level Kansas City Center
Sat 01:00:27 PM 36.6444 -99.1369 136° Southeast 474 545 35,000  Level Kansas City Center
Sat 01:01:28 PM 36.5494 -99.0206 135° Southeast 475 547 35,000  Level Kansas City Center
Sat 01:02:32 PM 36.4525 -98.9053 136° Southeast 476 548 35,000  Level Kansas City Center
Sat 01:03:32 PM 36.3567 -98.7883 135° Southeast 477 549 35,000  Level Kansas City Center
Sat 01:04:34 PM 36.2397 -98.6497 136° Southeast 478 550 35,000  Level Kansas City Center
Sat 01:05:35 PM 36.1442 -98.5331 135° Southeast 478 550 35,000  Level Kansas City Center
Sat 01:06:39 PM 36.0478 -98.4192 136° Southeast 476 548 35,000  Level Kansas City Center
Sat 01:07:40 PM 35.9503 -98.3050 137° Southeast 477 549 35,000  Level Kansas City Center
Sat 01:09:27 PM 35.7692 -98.0914 136° Southeast 477 549 35,000  Level Fort Worth Center
Sat 01:10:27 PM 35.6822 -97.9911 137° Southeast 477 549 35,000  Level Fort Worth Center
Sat 01:11:27 PM 35.5847 -97.8781 137° Southeast 477 549 35,000  Level Fort Worth Center
Sat 01:12:27 PM 35.4892 -97.7653 136° Southeast 477 549 35,000  Level Fort Worth Center
Sat 01:13:27 PM 35.3811 -97.6403 137° Southeast 483 556 35,000  Level Fort Worth Center
Sat 01:14:27 PM 35.2894 -97.5128 131° Southeast 483 556 35,000  Level Fort Worth Center
Sat 01:15:27 PM 35.2081 -97.3756 126° Southeast 490 564 35,000  Level Fort Worth Center
Sat 01:16:27 PM 35.1203 -97.2461 130° Southeast 495 570 35,000  Level Fort Worth Center
Sat 01:17:27 PM 35.0325 -97.1144 129° Southeast 495 570 35,000  Level Fort Worth Center
Sat 01:18:27 PM 34.9467 -96.9828 128° Southeast 495 570 35,000  Level Fort Worth Center
Sat 01:19:27 PM 34.8606 -96.8542 129° Southeast 495 570 35,000  Level Fort Worth Center
Sat 01:20:27 PM 34.7744 -96.7233 129° Southeast 495 570 35,000  Level Fort Worth Center
Sat 01:21:27 PM 34.6903 -96.5928 128° Southeast 495 570 35,000  Level Fort Worth Center
Sat 01:22:27 PM 34.6039 -96.4650 129° Southeast 495 570 35,000  Level Fort Worth Center
Sat 01:23:27 PM 34.5172 -96.3347 129° Southeast 495 570 35,000  Level Fort Worth Center
Sat 01:24:27 PM 34.4306 -96.2075 130° Southeast 495 570 35,000  Level Fort Worth Center
Sat 01:25:27 PM 34.3458 -96.0778 128° Southeast 495 570 35,000  Level Fort Worth Center
Sat 01:26:27 PM 34.2650 -95.9458 127° Southeast 495 570 35,000  Level Fort Worth Center
Sat 01:27:27 PM 34.1800 -95.8144 128° Southeast 495 570 35,000  Level Fort Worth Center
Sat 01:28:27 PM 34.0967 -95.6856 128° Southeast 495 570 35,000  Level Fort Worth Center
Sat 01:29:27 PM 34.0242 -95.5642 126° Southeast 495 570 35,000  Level Fort Worth Center
Sat 01:30:27 PM 33.9408 -95.4381 129° Southeast 490 564 35,000  Level Fort Worth Center
Sat 01:31:27 PM 33.8553 -95.3075 128° Southeast 490 564 35,000  Level Fort Worth Center
Sat 01:32:27 PM 33.7631 -95.1672 128° Southeast 490 564 35,000  Level Fort Worth Center
Sat 01:33:27 PM 33.6814 -95.0372 127° Southeast 485 558 35,000  Level Fort Worth Center
Sat 01:34:27 PM 33.5975 -94.9097 128° Southeast 485 558 35,000  Level Fort Worth Center
Sat 01:35:27 PM 33.5133 -94.7775 127° Southeast 491 565 35,000  Level Fort Worth Center
Sat 01:36:27 PM 33.4314 -94.6531 128° Southeast 486 559 35,000  Level Fort Worth Center
Sat 01:37:27 PM 33.3558 -94.5386 128° Southeast 485 558 35,000  Level Fort Worth Center
Sat 01:38:27 PM 33.2714 -94.4122 129° Southeast 485 558 35,000  Level Fort Worth Center
Sat 01:39:27 PM 33.1931 -94.2808 125° Southeast 485 558 35,000  Level Fort Worth Center
Sat 01:40:27 PM 33.1186 -94.1469 124° Southeast 490 564 35,000  Level Fort Worth Center
Sat 01:41:27 PM 33.0442 -94.0083 123° Southeast 490 564 35,000  Level Fort Worth Center
Sat 01:42:27 PM 32.9714 -93.8725 123° Southeast 490 564 35,000  Level Fort Worth Center
Sat 01:43:27 PM 32.8964 -93.7344 123° Southeast 490 564 35,000  Level Fort Worth Center
Sat 01:44:27 PM 32.8236 -93.5992 123° Southeast 490 564 35,000  Level Fort Worth Center
Sat 01:45:27 PM 32.7525 -93.4639 122° Southeast 490 564 35,000  Level Fort Worth Center
Sat 01:46:27 PM 32.6794 -93.3314 123° Southeast 490 564 35,000  Level Fort Worth Center
Sat 01:47:27 PM 32.6042 -93.1992 124° Southeast 490 564 35,000  Level Fort Worth Center
Sat 01:48:27 PM 32.5328 -93.0619 122° Southeast 490 564 35,000  Level Fort Worth Center
Sat 01:50:54 PM 32.3544 -92.7525 124° Southeast 487 560 35,000  Level Houston Center
Sat 01:51:56 PM 32.2731 -92.6108 124° Southeast 494 568 35,000  Level Houston Center
Sat 01:52:58 PM 32.1969 -92.4747 123° Southeast 496 571 35,000  Level Houston Center
Sat 01:54:00 PM 32.1039 -92.3097 124° Southeast 501 577 35,000 -48 Level Houston Center
Sat 01:55:02 PM 32.0269 -92.1747 124° Southeast 497 572 34,900 -48 Descending Houston Center
Sat 01:56:04 PM 31.9506 -92.0403 124° Southeast 493 567 34,900 48 Level Houston Center
Sat 01:57:06 PM 31.8747 -91.9072 124° Southeast 501 577 35,000 48 Climbing Houston Center
Sat 01:58:08 PM 31.7961 -91.7733 125° Southeast 496 571 35,000  Level Houston Center
Sat 01:59:10 PM 31.7031 -91.6108 124° Southeast 497 572 35,000 48 Level Houston Center
Sat 02:00:12 PM 31.6247 -91.4767 124° Southeast 498 573 35,100  Climbing Houston Center
Sat 02:01:14 PM 31.5478 -91.3447 124° Southeast 491 565 35,000 -48 Descending Houston Center
Sat 02:02:16 PM 31.4711 -91.2122 124° Southeast 490 564 35,000 -48 Level Houston Center
Sat 02:03:18 PM 31.3922 -91.0772 124° Southeast 486 559 34,900 -48 Descending Houston Center
Sat 02:04:20 PM 31.3156 -90.9467 124° Southeast 487 560 34,900  Level Houston Center
Sat 02:05:22 PM 31.2372 -90.8156 125° Southeast 492 566 34,900 48 Level Houston Center
Sat 02:06:24 PM 31.1603 -90.6842 124° Southeast 490 564 35,000 48 Climbing Houston Center
Sat 02:07:26 PM 31.0658 -90.5261 125° Southeast 495 570 35,000  Level Houston Center
Sat 02:08:28 PM 30.9872 -90.3933 125° Southeast 496 571 35,000  Level Houston Center
Sat 02:09:30 PM 30.9078 -90.2608 125° Southeast 498 573 35,000 -48 Level Houston Center
Sat 02:10:32 PM 30.8283 -90.1294 125° Southeast 497 572 34,900  Descending Houston Center
Sat 02:11:34 PM 30.7486 -89.9967 125° Southeast 498 573 35,000 48 Climbing Houston Center
Sat 02:12:36 PM 30.6681 -89.8650 125° Southeast 497 572 35,000  Level Houston Center
Sat 02:13:38 PM 30.5872 -89.7322 125° Southeast 497 572 35,000 -48 Level Houston Center
Sat 02:14:40 PM 30.5064 -89.5992 125° Southeast 495 570 34,900 -48 Descending Houston Center
Sat 02:15:42 PM 30.4072 -89.4425 126° Southeast 494 568 34,900  Level Houston Center
Sat 02:16:44 PM 30.3269 -89.3122 126° Southeast 494 568 34,900  Level Houston Center
Sat 02:17:46 PM 30.2439 -89.1806 126° Southeast 504 580 34,900 48 Level Houston Center
Sat 02:18:48 PM 30.1633 -89.0511 126° Southeast 498 573 35,000 48 Climbing Houston Center
Sat 02:19:50 PM 30.0833 -88.9208 125° Southeast 497 572 35,000  Level Houston Center
Sat 02:20:52 PM 30.0028 -88.7925 126° Southeast 494 568 35,000 677 Level Houston Center
Sat 02:21:54 PM 29.9144 -88.6514 126° Southeast 482 555 36,400 919 Climbing Houston Center
Sat 02:22:56 PM 29.8292 -88.5189 127° Southeast 480 552 36,900 242 Climbing Houston Center
Sat 02:23:58 PM 29.7500 -88.3922 126° Southeast 485 558 36,900 48 Level Houston Center
Sat 02:25:00 PM 29.6778 -88.2783 126° Southeast 482 555 37,000 48 Climbing Houston Center
Sat 02:26:02 PM 29.5842 -88.1292 126° Southeast 482 555 37,000  Level Houston Center
Sat 02:27:04 PM 29.5056 -88.0072 127° Southeast 479 551 37,000  Level Houston Center
Sat 02:28:06 PM 29.4333 -87.8792 123° Southeast 477 549 37,000  Level Houston Center
Sat 02:29:08 PM 29.3786 -87.7411 114° Southeast 480 552 37,000 -48 Level Houston Center
Sat 02:30:10 PM 29.3303 -87.5753 108° East 486 559 36,900 -48 Descending Houston Center
Sat 02:31:12 PM 29.2858 -87.4289 109° East 487 560 36,900 46 Level Houston Center
Sat 02:32:20 PM 29.2339 -87.2542 109° East 480 552 37,000 47 Climbing Jacksonville Center
Sat 02:33:20 PM 29.1908 -87.1047 108° East 485 558 37,000  Level Jacksonville Center
Sat 02:34:20 PM 29.1417 -86.9553 111° Southeast 492 566 37,000  Level Jacksonville Center
Sat 02:35:20 PM 29.0981 -86.8061 108° East 492 566 37,000  Level Jacksonville Center
Sat 02:36:20 PM 29.0486 -86.6497 110° East 498 573 37,000  Level Jacksonville Center
Sat 02:37:20 PM 29.0028 -86.5008 109° East 498 573 37,000  Level Jacksonville Center
Sat 02:38:20 PM 28.9547 -86.3522 110° East 498 573 37,000 -50 Level Jacksonville Center
Sat 02:39:20 PM 28.9086 -86.2011 109° East 498 573 36,900 -50 Descending Jacksonville Center
Sat 02:40:20 PM 28.8622 -86.0525 110° East 498 573 36,900  Level Jacksonville Center
Sat 02:41:20 PM 28.8136 -85.9019 110° East 498 573 36,900  Level Jacksonville Center
Sat 02:42:20 PM 28.7669 -85.7536 110° East 492 566 36,900 50 Level Jacksonville Center
Sat 02:43:20 PM 28.7203 -85.6031 109° East 497 572 37,000  Climbing Jacksonville Center
Sat 02:45:16 PM 28.6286 -85.3139 110° East 506 582 36,900  Descending Miami Center
Sat 02:46:16 PM 28.5828 -85.1689 110° East 499 574 37,000 50 Climbing Miami Center
Sat 02:47:16 PM 28.5353 -85.0214 110° East 494 568 37,000 -50 Level Miami Center
Sat 02:48:16 PM 28.4892 -84.8767 110° East 494 568 36,900 -400 Descending Miami Center
Sat 02:49:16 PM 28.4408 -84.7342 111° Southeast 489 563 36,200 -2,200 Descending Miami Center
Sat 02:50:16 PM 28.3928 -84.5844 110° East 489 563 32,500 -3,950 Descending Miami Center
Sat 02:51:16 PM 28.3428 -84.4281 110° East 504 580 28,300 -3,200 Descending Miami Center
Sat 02:52:16 PM 28.2922 -84.2786 111° Southeast 509 586 26,100 -2,050 Descending Miami Center
Sat 02:53:16 PM 28.2350 -84.1361 114° Southeast 501 577 24,200 -2,050 Descending Miami Center
Sat 02:54:16 PM 28.1939 -84.0017 109° East 480 552 22,000 -2,350 Descending Miami Center
Sat 02:55:16 PM 28.1483 -83.8669 111° Southeast 460 529 19,500 -2,250 Descending Miami Center
Sat 02:56:16 PM 28.1064 -83.7397 110° East 449 517 17,500 -1,900 Descending Miami Center
Sat 02:57:16 PM 28.0686 -83.6175 109° East 429 494 15,700 -2,100 Descending Miami Center
Sat 02:58:16 PM 28.0258 -83.5022 113° Southeast 414 476 13,300 -2,250 Descending Miami Center
Sat 02:59:16 PM 27.9875 -83.3872 111° Southeast 397 457 11,200 -1,500 Descending Miami Center
Sat 03:00:16 PM 27.9525 -83.2819 111° Southeast 381 438 10,300 -1,000 Descending Miami Center
Sat 03:01:16 PM 27.9211 -83.1908 111° Southeast 345 397 9,200 -1,300 Descending Miami Center
Sat 03:02:16 PM 27.9397 -83.1003 77° East 285 328 7,700 -1,150 Descending Miami Center
Sat 03:03:16 PM 27.9769 -83.0131 64° Northeast 293 337 6,900 -400 Descending Miami Center
Sat 03:04:16 PM 28.0203 -82.9239 61° Northeast 301 346 6,900  Level Miami Center
Sat 03:05:16 PM 28.0550 -82.8411 65° Northeast 301 346 6,900  Level Miami Center
Sat 03:05:37 PM 28.0667 -82.8167 62° Northeast 310 357 6,900 80 Level Tampa TRACON
Sat 03:06:31 PM 28.1000 -82.7333 66° East 304 350 7,000  Climbing Tampa TRACON
Sat 03:07:38 PM 28.0667 -82.6500 114° Southeast 289 333 6,900 -756 Descending Tampa TRACON
Sat 03:08:38 PM 27.9833 -82.6167 161° South 278 320 5,400 -1,429 Descending Tampa TRACON
Sat 03:09:44 PM 27.9000 -82.6167 180° South 266 306 3,900 -1,000 Descending Tampa TRACON
Sat 03:10:44 PM 27.8500 -82.6000 164° South 232 267 3,300 -600 Descending Tampa TRACON

Login

Don't have an account? Register now (free) for customized features, flight alerts, and more!